»·PEaware :: WAT388 KPDX-KYKM

WAT388 :: KPDX-KYKM

FLIGHT INFORMATION

Flight Status: Arrived
Operator:
Walker Air Transport
More flights by this operator :: More flights under this callsign
Pilot: Jacob A. (30091)
Aircraft: MOONEY M-20 201 202 205 220 ATS MSE
(M20P)
More flights by this aircraft type
Origin: KPDX Portland Intl
United States
Destination: KYKM Yakima Air Term/Mcallister
United States
More flights between these airports :: More routes between these airports
Route: DCT
File this flight plan on PilotEdge
Remarks:
Altitude:
(Current/Filed)
8,500ft
Speed:
(Current/Filed)
160kts
Departed: 21-Oct-20 02:29 PM
Arrived: 21-Oct-20 03:08 PM
Distance/Time
Traveled:
104nm/0:38
Distance/Time
To Go:
Arrived

Flight Plot

Page will automatically refresh every two minutes.

Flight plan parsing failed; only flown route is shown


Map Options




Map Legend


Flown Route
Filed Route
Departure Airport
Arrival Airport
Navaid (VOR, NDB)
Fix

Horizontal Profiles

Position Reports

Time Latitude Longitude Heading Altitude Ground
Speed
21-Oct-20 14:10 45.586004 -122.580522 210 33ft 0kts
21-Oct-20 14:10 45.586004 -122.580522 210 33ft 0kts
21-Oct-20 14:12 45.586004 -122.580522 210 33ft 0kts
21-Oct-20 14:12 45.586004 -122.580522 210 33ft 0kts
21-Oct-20 14:14 45.586004 -122.580522 210 33ft 0kts
21-Oct-20 14:14 45.586004 -122.580521 210 33ft 0kts
21-Oct-20 14:15 45.586004 -122.580521 210 33ft 0kts
21-Oct-20 14:16 45.586004 -122.580521 210 33ft 0kts
21-Oct-20 14:17 45.586004 -122.580521 210 33ft 0kts
21-Oct-20 14:18 45.586004 -122.580521 210 33ft 0kts
21-Oct-20 14:19 45.586004 -122.580521 210 33ft 0kts
21-Oct-20 14:20 45.586004 -122.580521 210 33ft 0kts
21-Oct-20 14:21 45.586004 -122.580521 210 33ft 0kts
21-Oct-20 14:22 45.586229 -122.580031 27 36ft 0kts
21-Oct-20 14:23 45.586342 -122.579486 111 37ft 11kts
21-Oct-20 14:24 45.585435 -122.574808 119 32ft 31kts
21-Oct-20 14:25 45.582712 -122.567546 83 34ft 0kts
21-Oct-20 14:26 45.582712 -122.567546 83 34ft 0kts
21-Oct-20 14:27 45.583487 -122.566959 348 33ft 4kts
21-Oct-20 14:28 45.594145 -122.588162 324 704ft 112kts
21-Oct-20 14:29 45.634022 -122.602162 346 1588ft 161kts
21-Oct-20 14:30 45.677152 -122.606069 15 2593ft 157kts
21-Oct-20 14:31 45.713177 -122.575415 56 3595ft 157kts
21-Oct-20 14:32 45.735665 -122.522543 57 4597ft 153kts
21-Oct-20 14:33 45.757522 -122.470950 57 5599ft 150kts
21-Oct-20 14:34 45.779104 -122.420257 58 6606ft 147kts
21-Oct-20 14:35 45.798103 -122.369387 70 7599ft 143kts
21-Oct-20 14:36 45.811080 -122.313618 71 8429ft 160kts
21-Oct-20 14:37 45.826661 -122.247219 70 8499ft 185kts
21-Oct-20 14:38 45.843366 -122.176479 70 8500ft 188kts
21-Oct-20 14:39 45.860308 -122.104885 72 8496ft 189kts
21-Oct-20 14:40 45.868574 -122.032268 64 8500ft 188kts
21-Oct-20 14:41 45.893841 -121.967008 44 8499ft 187kts
21-Oct-20 14:42 45.927558 -121.910179 67 8497ft 189kts
21-Oct-20 14:43 45.944571 -121.838604 71 8504ft 190kts
21-Oct-20 14:44 45.961390 -121.766710 71 8498ft 189kts
21-Oct-20 14:45 45.978319 -121.695072 70 8500ft 189kts
21-Oct-20 14:46 45.995212 -121.623597 70 8500ft 189kts
21-Oct-20 14:47 46.012332 -121.552196 65 8500ft 188kts
21-Oct-20 14:48 46.040910 -121.488894 55 8500ft 189kts
21-Oct-20 14:49 46.070330 -121.425934 55 8499ft 189kts
21-Oct-20 14:50 46.100828 -121.364486 51 8499ft 188kts
21-Oct-20 14:51 46.132939 -121.304978 51 8498ft 187kts
21-Oct-20 14:52 46.165016 -121.245273 51 8498ft 189kts
21-Oct-20 14:53 46.197096 -121.185515 51 8500ft 188kts
21-Oct-20 14:54 46.229393 -121.125373 51 8495ft 188kts
21-Oct-20 14:55 46.260851 -121.066655 51 8127ft 176kts
21-Oct-20 14:56 46.290280 -121.011610 51 7626ft 171kts
21-Oct-20 14:57 46.319365 -120.957147 51 7127ft 171kts
21-Oct-20 14:58 46.348547 -120.902347 51 6624ft 172kts
21-Oct-20 14:59 46.377937 -120.847231 51 6128ft 173kts
21-Oct-20 15:00 46.407372 -120.791876 51 5626ft 173kts
21-Oct-20 15:01 46.436871 -120.736471 51 5124ft 173kts
21-Oct-20 15:02 46.466362 -120.680970 51 4624ft 174kts
21-Oct-20 15:03 46.495208 -120.626671 51 4492ft 161kts
21-Oct-20 15:04 46.522109 -120.574720 54 4188ft 147kts
21-Oct-20 15:05 46.543011 -120.524389 44 2451ft 111kts
21-Oct-20 15:06 46.565005 -120.529515 287 1117ft 84kts
21-Oct-20 15:07 46.568880 -120.542320 20 1070ft 10kts
21-Oct-20 15:08 46.571403 -120.547440 356 1081ft 6kts

Navigation Log

Ident Type
Flight plan parsing failed, navigation log unavailable